createdAt,value
2023-02-11T00:01:39.150Z,60.01
2023-02-11T00:04:08.149Z,60.23
2023-02-11T00:06:36.818Z,60.25
2023-02-11T00:09:06.347Z,60.08
2023-02-11T00:11:35.058Z,60.24
2023-02-11T00:14:07.940Z,60.32
2023-02-11T00:16:36.546Z,60.19
2023-02-11T00:19:06.545Z,60.25
2023-02-11T00:21:35.537Z,60.53
2023-02-11T00:24:04.182Z,60.67
2023-02-11T00:26:34.700Z,60.69
2023-02-11T00:29:03.456Z,60.58
2023-02-11T00:31:33.711Z,60.46
2023-02-11T00:34:02.384Z,60.77
2023-02-11T00:36:31.076Z,60.81
2023-02-11T00:38:59.724Z,60.96
2023-02-11T00:41:29.988Z,61.07
2023-02-11T00:44:02.069Z,60.73
2023-02-11T00:46:30.410Z,60.97
2023-02-11T00:48:59.344Z,61.15
2023-02-11T00:51:28.993Z,60.99
2023-02-11T00:53:57.731Z,60.94
2023-02-11T00:56:26.800Z,61.00
2023-02-11T00:58:55.016Z,61.08
2023-02-11T01:01:23.974Z,61.18
2023-02-11T01:03:52.408Z,60.95
2023-02-11T01:06:21.102Z,61.46
2023-02-11T01:08:49.397Z,61.34
2023-02-11T01:11:20.267Z,61.21
2023-02-11T01:13:50.139Z,61.24
2023-02-11T01:16:20.369Z,61.22
2023-02-11T01:18:49.056Z,61.33
2023-02-11T01:21:19.474Z,61.14
2023-02-11T01:23:48.080Z,60.98
2023-02-11T01:26:16.895Z,60.81
2023-02-11T01:28:45.459Z,60.73
2023-02-11T01:31:14.601Z,60.85
2023-02-11T01:33:43.249Z,60.90
2023-02-11T01:36:12.366Z,60.96
2023-02-11T01:38:41.469Z,60.91
2023-02-11T01:41:12.698Z,61.54
2023-02-11T01:43:48.347Z,61.28
2023-02-11T01:46:38.720Z,61.60
2023-02-11T01:49:12.792Z,61.73
2023-02-11T01:51:56.907Z,61.61
2023-02-11T01:54:47.584Z,61.95
2023-02-11T01:57:22.946Z,61.88
2023-02-11T02:00:24.449Z,61.94
2023-02-11T02:03:03.000Z,62.29
2023-02-11T02:05:47.164Z,62.07
2023-02-11T02:08:37.924Z,62.09
2023-02-11T02:11:06.669Z,62.04
2023-02-11T02:13:36.092Z,61.99
2023-02-11T02:16:13.132Z,62.23
2023-02-11T02:18:49.074Z,62.11
2023-02-11T02:21:32.592Z,62.27
2023-02-11T02:24:31.984Z,62.01
2023-02-11T02:27:15.679Z,62.13
2023-02-11T02:29:55.559Z,62.53
2023-02-11T02:32:51.676Z,62.24
2023-02-11T02:35:40.842Z,62.06
2023-02-11T02:38:30.813Z,62.38
2023-02-11T02:41:07.544Z,62.47
2023-02-11T02:43:40.753Z,62.42
2023-02-11T02:46:20.136Z,62.54
2023-02-11T02:48:49.943Z,62.70
2023-02-11T02:51:40.016Z,62.75
2023-02-11T02:54:37.365Z,62.58
2023-02-11T02:57:39.115Z,62.88
2023-02-11T03:00:17.519Z,63.20
2023-02-11T03:03:01.057Z,62.98
2023-02-11T03:05:45.092Z,63.02
2023-02-11T03:08:37.943Z,63.19
2023-02-11T03:11:09.285Z,63.38
2023-02-11T03:13:40.246Z,63.61
2023-02-11T03:16:14.088Z,63.68
2023-02-11T03:18:48.691Z,63.82
2023-02-11T03:21:18.587Z,63.56
2023-02-11T03:23:54.090Z,63.43
2023-02-11T03:26:37.455Z,63.53
2023-02-11T03:29:28.663Z,63.90
2023-02-11T03:32:16.279Z,63.50
2023-02-11T03:35:24.784Z,63.71
2023-02-11T03:37:56.135Z,63.60
2023-02-11T03:40:32.112Z,63.45
2023-02-11T03:43:07.366Z,63.29
2023-02-11T03:45:37.589Z,63.32
2023-02-11T03:48:23.757Z,63.29
2023-02-11T03:50:54.387Z,63.20
2023-02-11T03:53:23.973Z,62.93
2023-02-11T03:55:55.458Z,62.42
2023-02-11T03:58:24.250Z,62.79
2023-02-11T04:00:52.582Z,62.44
2023-02-11T04:03:21.063Z,62.23
2023-02-11T04:05:49.742Z,62.48
2023-02-11T04:08:18.400Z,62.50
2023-02-11T04:10:47.096Z,62.30
2023-02-11T04:13:15.580Z,62.12
2023-02-11T04:15:44.168Z,62.44
2023-02-11T04:18:12.349Z,62.22
2023-02-11T04:20:40.731Z,61.88
2023-02-11T04:23:09.021Z,62.07
2023-02-11T04:25:37.413Z,62.46
2023-02-11T04:28:05.604Z,62.16
2023-02-11T04:30:34.065Z,61.99
2023-02-11T04:33:02.247Z,61.99
2023-02-11T04:35:30.638Z,61.90
2023-02-11T04:37:58.929Z,61.30
2023-02-11T04:40:27.203Z,61.14
2023-02-11T04:42:55.993Z,61.14
2023-02-11T04:45:24.588Z,61.06
2023-02-11T04:47:52.980Z,60.64
2023-02-11T04:50:21.572Z,60.80
2023-02-11T04:52:50.760Z,60.64
2023-02-11T04:55:19.555Z,60.79
2023-02-11T04:57:47.728Z,60.80
2023-02-11T05:00:16.916Z,60.75
2023-02-11T05:02:45.222Z,60.90
2023-02-11T05:05:14.109Z,61.05
2023-02-11T05:07:42.393Z,61.36
2023-02-11T05:10:10.876Z,61.52
2023-02-11T05:12:39.465Z,61.70
2023-02-11T05:15:08.367Z,61.68
2023-02-11T05:17:36.644Z,61.58
2023-02-11T05:20:05.421Z,61.54
2023-02-11T05:22:33.619Z,61.69
2023-02-11T05:25:01.818Z,61.78
2023-02-11T05:27:30.196Z,61.98
2023-02-11T05:29:58.466Z,61.57
2023-02-11T05:32:26.648Z,61.74
2023-02-11T05:34:55.233Z,61.90
2023-02-11T05:37:24.328Z,61.90
2023-02-11T05:39:52.727Z,62.35
2023-02-11T05:42:21.104Z,62.24
2023-02-11T05:44:50.685Z,62.44
2023-02-11T05:47:19.203Z,62.45
2023-02-11T05:49:47.694Z,62.28
2023-02-11T05:52:16.084Z,62.38
2023-02-11T05:54:44.567Z,62.35
2023-02-11T05:57:13.461Z,62.15
2023-02-11T05:59:42.066Z,62.23
2023-02-11T06:02:11.080Z,61.78
2023-02-11T06:04:39.754Z,61.92
2023-02-11T06:07:08.125Z,62.21
2023-02-11T06:09:37.302Z,62.28
2023-02-11T06:12:05.621Z,62.12
2023-02-11T06:14:34.394Z,62.16
2023-02-11T06:17:02.969Z,62.08
2023-02-11T06:19:31.475Z,61.90
2023-02-11T06:21:59.770Z,61.79
2023-02-11T06:24:48.100Z,61.93
2023-02-11T06:27:16.490Z,61.73
2023-02-11T06:29:46.489Z,62.18
2023-02-11T06:32:36.879Z,61.70
2023-02-11T06:35:03.130Z,61.68
2023-02-11T06:37:31.523Z,61.88
2023-02-11T06:40:00.207Z,61.53
2023-02-11T06:42:28.587Z,60.70
2023-02-11T06:44:56.980Z,61.19
2023-02-11T06:47:25.331Z,61.14
2023-02-11T06:49:53.638Z,61.15
2023-02-11T06:52:22.128Z,60.93
2023-02-11T06:54:50.918Z,60.97
2023-02-11T06:57:19.312Z,60.92
2023-02-11T06:59:47.588Z,61.04
2023-02-11T07:02:16.089Z,60.83
2023-02-11T07:04:45.481Z,61.04
2023-02-11T07:07:13.761Z,61.25
2023-02-11T07:09:42.266Z,61.13
2023-02-11T07:12:10.946Z,61.29
2023-02-11T07:14:40.475Z,60.75
2023-02-11T07:17:08.739Z,60.79
2023-02-11T07:19:37.231Z,60.51
2023-02-11T07:22:05.503Z,60.22
2023-02-11T07:24:33.680Z,59.78
2023-02-11T07:27:02.065Z,59.33
2023-02-11T07:29:30.551Z,58.67
2023-02-11T07:31:58.831Z,58.39
2023-02-11T07:34:27.360Z,58.39
2023-02-11T07:36:55.608Z,58.54
2023-02-11T07:39:27.577Z,57.95
2023-02-11T07:41:57.005Z,57.50
2023-02-11T07:44:25.573Z,56.92
2023-02-11T07:46:53.780Z,53.29
2023-02-11T07:49:22.544Z,52.91
2023-02-11T07:51:51.603Z,51.92
2023-02-11T07:54:19.927Z,51.35
2023-02-11T07:56:48.526Z,51.95
2023-02-11T07:59:17.203Z,50.01
2023-02-11T08:01:45.752Z,50.38
2023-02-11T08:04:14.286Z,50.54
2023-02-11T08:06:43.796Z,49.89
2023-02-11T08:09:16.878Z,50.57
2023-02-11T08:11:45.780Z,49.61
2023-02-11T08:14:14.001Z,50.26
2023-02-11T08:16:42.352Z,50.50
2023-02-11T08:19:13.806Z,50.49
2023-02-11T08:21:42.796Z,50.47
2023-02-11T08:24:11.578Z,49.01
2023-02-11T08:26:39.971Z,48.16
2023-02-11T08:29:11.517Z,47.67
2023-02-11T08:31:43.032Z,48.47
2023-02-11T08:34:14.346Z,47.56
2023-02-11T08:36:43.092Z,46.68
2023-02-11T08:39:20.508Z,46.13
2023-02-11T08:41:53.081Z,45.66
2023-02-11T08:44:23.022Z,46.66
2023-02-11T08:46:52.058Z,44.45
2023-02-11T08:49:21.225Z,43.22
2023-02-11T08:51:49.709Z,41.05
2023-02-11T08:54:18.510Z,41.11
2023-02-11T08:56:50.780Z,40.56
2023-02-11T08:59:19.575Z,41.79
2023-02-11T09:01:48.552Z,41.54
2023-02-11T09:04:17.050Z,41.43
2023-02-11T09:06:46.307Z,40.04
2023-02-11T09:09:16.178Z,40.45
2023-02-11T09:11:45.067Z,39.16
2023-02-11T09:14:19.810Z,38.03
2023-02-11T09:16:49.343Z,37.04
2023-02-11T09:19:18.518Z,36.03
2023-02-11T09:21:47.357Z,36.33
2023-02-11T09:24:15.695Z,34.39
2023-02-11T09:26:45.914Z,33.84
2023-02-11T09:29:14.211Z,32.84
2023-02-11T09:31:42.746Z,32.66
2023-02-11T09:34:12.464Z,33.06
2023-02-11T09:36:41.689Z,29.85
2023-02-11T09:39:14.798Z,31.53
2023-02-11T09:42:01.804Z,30.53
2023-02-11T09:44:33.893Z,30.58
2023-02-11T09:47:15.766Z,30.57
2023-02-11T09:50:10.238Z,30.40
2023-02-11T09:52:47.637Z,29.84
2023-02-11T09:55:25.192Z,29.11
2023-02-11T09:57:53.896Z,27.99
2023-02-11T10:00:33.678Z,29.38
2023-02-11T10:03:17.207Z,29.88
2023-02-11T10:05:56.744Z,29.77
2023-02-11T10:08:39.965Z,29.59
2023-02-11T10:11:31.739Z,28.66
2023-02-11T10:14:16.642Z,28.21
2023-02-11T10:16:50.965Z,29.37
2023-02-11T10:19:29.583Z,28.83
2023-02-11T10:22:09.948Z,27.98
2023-02-11T10:24:38.900Z,28.78
2023-02-11T10:27:17.674Z,29.20
2023-02-11T10:29:52.692Z,29.14
2023-02-11T10:32:38.889Z,28.49
2023-02-11T10:35:18.220Z,28.49
2023-02-11T10:37:47.133Z,28.30
2023-02-11T10:40:18.556Z,28.54
2023-02-11T10:42:54.352Z,29.03
2023-02-11T10:45:27.515Z,29.39
2023-02-11T10:47:56.304Z,30.21
2023-02-11T10:50:28.786Z,30.12
2023-02-11T10:53:15.661Z,29.75
2023-02-11T10:55:54.322Z,29.44
2023-02-11T10:58:31.111Z,28.96
2023-02-11T11:01:00.671Z,29.36
2023-02-11T11:03:39.175Z,29.22
2023-02-11T11:06:09.849Z,28.81
2023-02-11T11:08:51.131Z,28.35
2023-02-11T11:11:22.382Z,28.46
2023-02-11T11:13:53.449Z,28.47
2023-02-11T11:16:25.494Z,28.96
2023-02-11T11:19:21.770Z,27.32
2023-02-11T11:21:56.442Z,26.50
2023-02-11T11:24:40.483Z,27.40
2023-02-11T11:27:17.056Z,26.80
2023-02-11T11:29:52.113Z,26.98
2023-02-11T11:32:40.049Z,27.08
2023-02-11T11:35:23.856Z,26.34
2023-02-11T11:37:54.499Z,26.23
2023-02-11T11:40:27.331Z,25.41
2023-02-11T11:43:23.159Z,25.13
2023-02-11T11:45:59.994Z,24.89
2023-02-11T11:48:46.153Z,24.87
2023-02-11T11:51:15.146Z,25.94
2023-02-11T11:54:05.131Z,25.09
2023-02-11T11:56:38.304Z,24.72
2023-02-11T11:59:16.595Z,25.36
2023-02-11T12:01:57.235Z,26.40
2023-02-11T12:04:40.631Z,26.03
2023-02-11T12:07:20.779Z,25.87
2023-02-11T12:10:23.234Z,25.85
2023-02-11T12:13:18.900Z,25.99
2023-02-11T12:15:57.455Z,26.06
2023-02-11T12:18:25.532Z,26.52
2023-02-11T12:21:21.548Z,26.48
2023-02-11T12:24:17.213Z,26.86
2023-02-11T12:27:28.523Z,27.41
2023-02-11T12:30:12.676Z,28.21
2023-02-11T12:32:59.058Z,28.45
2023-02-11T12:35:37.283Z,28.54
2023-02-11T12:38:12.228Z,28.94
2023-02-11T12:41:56.396Z,28.98
2023-02-11T12:45:02.153Z,29.68
2023-02-11T12:47:51.924Z,29.73
2023-02-11T12:50:35.762Z,30.20
2023-02-11T12:53:36.436Z,30.56
2023-02-11T12:56:23.493Z,30.75
2023-02-11T12:58:57.636Z,30.51
2023-02-11T13:01:37.140Z,30.92
2023-02-11T13:04:14.948Z,30.85
2023-02-11T13:06:54.692Z,30.50
2023-02-11T13:09:26.859Z,30.43
2023-02-11T13:11:59.241Z,30.15
2023-02-11T13:14:33.151Z,30.54
2023-02-11T13:17:04.917Z,29.68
2023-02-11T13:19:38.618Z,28.17
2023-02-11T13:22:12.942Z,28.35
2023-02-11T13:24:49.548Z,28.39
2023-02-11T13:27:20.453Z,28.74
2023-02-11T13:29:56.389Z,29.00
2023-02-11T13:32:24.703Z,29.69
2023-02-11T13:34:53.077Z,29.64
2023-02-11T13:37:38.653Z,30.05
2023-02-11T13:40:22.443Z,30.95
2023-02-11T13:42:59.563Z,31.28
2023-02-11T13:45:33.730Z,31.62
2023-02-11T13:48:05.972Z,31.68
2023-02-11T13:50:47.040Z,31.53
2023-02-11T13:53:17.259Z,31.68
2023-02-11T13:55:49.427Z,32.19
2023-02-11T13:58:33.786Z,32.00
2023-02-11T14:01:03.496Z,32.32
2023-02-11T14:03:53.470Z,32.18
2023-02-11T14:06:42.230Z,32.11
2023-02-11T14:09:10.503Z,32.18
2023-02-11T14:11:42.162Z,31.62
2023-02-11T14:14:26.052Z,31.48
2023-02-11T14:17:00.410Z,31.60
2023-02-11T14:19:33.763Z,32.14
2023-02-11T14:22:04.458Z,32.05
2023-02-11T14:24:32.534Z,32.01
2023-02-11T14:27:21.522Z,32.01
2023-02-11T14:29:58.309Z,31.86
2023-02-11T14:32:32.792Z,31.91
2023-02-11T14:35:31.977Z,31.89
2023-02-11T14:38:15.489Z,31.93
2023-02-11T14:40:52.373Z,32.23
2023-02-11T14:43:25.928Z,32.60
2023-02-11T14:45:58.034Z,32.76
2023-02-11T14:48:31.263Z,32.99
2023-02-11T14:51:02.501Z,33.28
2023-02-11T14:53:33.544Z,33.55
2023-02-11T14:56:01.727Z,33.68
2023-02-11T14:58:32.372Z,33.67
2023-02-11T15:01:06.682Z,33.81
2023-02-11T15:03:39.872Z,33.93
2023-02-11T15:06:24.423Z,34.09
2023-02-11T15:08:58.390Z,34.21
2023-02-11T15:11:30.508Z,34.54
2023-02-11T15:14:08.236Z,35.25
2023-02-11T15:16:42.190Z,35.76
2023-02-11T15:19:24.449Z,36.42
2023-02-11T15:21:53.846Z,36.68
2023-02-11T15:24:25.583Z,37.22
2023-02-11T15:27:00.827Z,37.20
2023-02-11T15:29:39.257Z,38.15
2023-02-11T15:32:10.490Z,38.46
2023-02-11T15:34:39.389Z,38.40
2023-02-11T15:37:08.282Z,38.62
2023-02-11T15:39:41.142Z,39.18
2023-02-11T15:42:26.546Z,40.22
2023-02-11T15:45:16.016Z,41.00
2023-02-11T15:47:50.634Z,40.67
2023-02-11T15:50:26.197Z,41.29
2023-02-11T15:52:56.611Z,41.63
2023-02-11T15:55:27.090Z,41.79
2023-02-11T15:57:58.197Z,42.37
2023-02-11T16:00:36.241Z,42.70
2023-02-11T16:03:05.205Z,43.06
2023-02-11T16:05:37.570Z,43.86
2023-02-11T16:08:26.219Z,44.34
2023-02-11T16:10:58.643Z,43.96
2023-02-11T16:13:28.545Z,44.21
2023-02-11T16:16:18.873Z,44.46
2023-02-11T16:19:04.821Z,44.28
2023-02-11T16:21:40.230Z,44.93
2023-02-11T16:24:36.135Z,45.00
2023-02-11T16:27:08.716Z,45.13
2023-02-11T16:29:38.074Z,45.65
2023-02-11T16:32:06.440Z,45.99
2023-02-11T16:34:34.795Z,46.46
2023-02-11T16:37:05.288Z,46.23
2023-02-11T16:39:34.219Z,46.95
2023-02-11T16:42:03.865Z,47.07
2023-02-11T16:44:34.125Z,46.90
2023-02-11T16:47:04.588Z,47.04
2023-02-11T16:49:37.291Z,46.89
2023-02-11T16:52:16.051Z,46.63
2023-02-11T16:54:44.483Z,47.25
2023-02-11T16:57:23.212Z,48.26
2023-02-11T16:59:52.411Z,48.61
2023-02-11T17:02:26.935Z,48.43
2023-02-11T17:04:58.613Z,48.71
2023-02-11T17:07:27.589Z,48.76
2023-02-11T17:09:56.841Z,49.13
2023-02-11T17:12:25.615Z,49.13
2023-02-11T17:14:54.273Z,49.28
2023-02-11T17:17:24.035Z,49.11
2023-02-11T17:19:52.373Z,49.50
2023-02-11T17:22:20.557Z,49.31
2023-02-11T17:24:49.044Z,49.92
2023-02-11T17:27:17.628Z,49.67
2023-02-11T17:29:46.014Z,49.90
2023-02-11T17:32:14.466Z,50.22
2023-02-11T17:34:42.587Z,49.52
2023-02-11T17:37:11.274Z,50.17
2023-02-11T17:39:40.590Z,50.21
2023-02-11T17:42:08.954Z,50.42
2023-02-11T17:44:37.551Z,50.88
2023-02-11T17:47:05.830Z,51.01
2023-02-11T17:49:34.314Z,51.17
2023-02-11T17:52:03.312Z,51.31
2023-02-11T17:54:31.594Z,51.32
2023-02-11T17:56:59.774Z,51.73
2023-02-11T17:59:31.847Z,51.96
2023-02-11T18:02:00.435Z,52.24
2023-02-11T18:04:29.305Z,52.00
2023-02-11T18:06:58.024Z,52.52
2023-02-11T18:09:26.622Z,52.91
2023-02-11T18:11:55.615Z,52.56
2023-02-11T18:14:24.701Z,52.51
2023-02-11T18:16:53.579Z,52.56
2023-02-11T18:19:21.912Z,53.02
2023-02-11T18:21:51.196Z,52.99
2023-02-11T18:24:19.476Z,52.98
2023-02-11T18:26:47.770Z,52.78
2023-02-11T18:29:16.142Z,53.22
2023-02-11T18:31:44.610Z,53.24
2023-02-11T18:34:13.406Z,53.21
2023-02-11T18:36:41.707Z,53.36
2023-02-11T18:39:10.607Z,53.42
2023-02-11T18:41:41.441Z,53.38
2023-02-11T18:44:11.864Z,53.52
2023-02-11T18:46:41.080Z,54.03
2023-02-11T18:49:13.271Z,53.99
2023-02-11T18:51:41.633Z,53.57
2023-02-11T18:54:09.817Z,53.02
2023-02-11T18:56:38.201Z,53.74
2023-02-11T18:59:06.790Z,53.79
2023-02-11T19:01:35.746Z,53.88
2023-02-11T19:04:05.416Z,54.06
2023-02-11T19:06:36.999Z,53.99
2023-02-11T19:09:10.165Z,53.95
2023-02-11T19:11:54.163Z,54.27
2023-02-11T19:14:28.636Z,54.70
2023-02-11T19:16:57.939Z,54.95
2023-02-11T19:19:29.918Z,55.04
2023-02-11T19:21:59.607Z,55.22
2023-02-11T19:24:29.529Z,55.17
2023-02-11T19:27:03.943Z,55.12
2023-02-11T19:29:35.213Z,55.23
2023-02-11T19:32:08.491Z,54.74
2023-02-11T19:34:41.499Z,55.13
2023-02-11T19:37:13.088Z,55.53
2023-02-11T19:39:43.376Z,55.33
2023-02-11T19:42:12.330Z,55.20
2023-02-11T19:44:40.547Z,55.43
2023-02-11T19:47:10.528Z,55.18
2023-02-11T19:49:38.950Z,55.48
2023-02-11T19:52:07.231Z,55.40
2023-02-11T19:54:35.613Z,55.79
2023-02-11T19:57:03.999Z,55.85
2023-02-11T19:59:32.288Z,55.42
2023-02-11T20:02:01.995Z,55.15
2023-02-11T20:04:32.426Z,55.06
2023-02-11T20:07:01.224Z,54.66
2023-02-11T20:09:31.295Z,53.96
2023-02-11T20:11:59.729Z,53.70
2023-02-11T20:14:28.396Z,53.16
2023-02-11T20:16:56.909Z,52.61
2023-02-11T20:19:25.191Z,52.08
2023-02-11T20:21:55.840Z,51.65
2023-02-11T20:24:25.778Z,51.47
2023-02-11T20:26:57.250Z,51.53
2023-02-11T20:29:26.089Z,51.29
2023-02-11T20:31:54.829Z,51.45
2023-02-11T20:34:23.578Z,51.22
2023-02-11T20:36:52.387Z,51.42
2023-02-11T20:39:25.006Z,52.04
2023-02-11T20:41:54.592Z,52.71
2023-02-11T20:44:23.572Z,53.19
2023-02-11T20:46:54.091Z,53.12
2023-02-11T20:49:24.423Z,52.34
2023-02-11T20:51:54.211Z,52.08
2023-02-11T20:54:24.564Z,51.93
2023-02-11T20:56:54.457Z,51.62
2023-02-11T20:59:23.409Z,51.39
2023-02-11T21:01:54.344Z,51.56
2023-02-11T21:04:29.567Z,51.26
2023-02-11T21:07:01.557Z,52.06
2023-02-11T21:09:32.178Z,52.23
2023-02-11T21:12:01.265Z,52.78
2023-02-11T21:14:30.436Z,53.40
2023-02-11T21:16:59.165Z,53.17
2023-02-11T21:19:27.666Z,53.17
2023-02-11T21:21:57.500Z,53.27
2023-02-11T21:24:25.960Z,53.90
2023-02-11T21:26:54.959Z,53.55
2023-02-11T21:29:23.147Z,54.06
2023-02-11T21:31:51.749Z,54.26
2023-02-11T21:34:20.958Z,54.03
2023-02-11T21:36:51.422Z,54.21
2023-02-11T21:39:20.518Z,54.40
2023-02-11T21:41:48.874Z,54.46
2023-02-11T21:44:18.001Z,54.52
2023-02-11T21:46:46.193Z,54.75
2023-02-11T21:49:15.145Z,54.24
2023-02-11T21:51:43.485Z,54.47
2023-02-11T21:54:12.023Z,54.50
2023-02-11T21:56:40.796Z,54.63
2023-02-11T21:59:13.802Z,54.40
2023-02-11T22:01:42.072Z,54.81
2023-02-11T22:04:10.377Z,54.89
2023-02-11T22:06:39.160Z,54.95
2023-02-11T22:09:11.217Z,55.14
2023-02-11T22:11:39.915Z,55.56
2023-02-11T22:14:08.294Z,55.21
2023-02-11T22:16:37.041Z,55.07
2023-02-11T22:19:07.688Z,55.03
2023-02-11T22:21:36.114Z,54.88
2023-02-11T22:24:04.822Z,55.29
2023-02-11T22:26:33.080Z,55.37
2023-02-11T22:29:01.468Z,55.48
2023-02-11T22:31:33.094Z,55.68
2023-02-11T22:34:03.237Z,55.89
2023-02-11T22:36:41.798Z,55.48
2023-02-11T22:39:16.483Z,55.34
2023-02-11T22:41:46.405Z,55.71
2023-02-11T22:44:17.373Z,56.07
2023-02-11T22:46:45.838Z,56.26
2023-02-11T22:49:16.043Z,56.13
2023-02-11T22:51:45.278Z,56.10
2023-02-11T22:54:19.375Z,55.99
2023-02-11T22:56:51.379Z,55.70
2023-02-11T22:59:20.608Z,55.27
2023-02-11T23:01:49.143Z,54.97
2023-02-11T23:04:19.574Z,55.19
2023-02-11T23:06:48.666Z,55.10
2023-02-11T23:09:17.049Z,55.41
2023-02-11T23:11:47.178Z,55.16
2023-02-11T23:14:15.861Z,55.25
2023-02-11T23:16:44.111Z,55.75
2023-02-11T23:19:13.040Z,56.43
2023-02-11T23:21:41.535Z,56.53
2023-02-11T23:24:15.613Z,56.76
2023-02-11T23:26:44.169Z,56.91
2023-02-11T23:29:13.034Z,57.51
2023-02-11T23:31:46.255Z,57.20
2023-02-11T23:34:20.444Z,57.24
2023-02-11T23:36:48.529Z,57.78
2023-02-11T23:39:21.677Z,57.37
2023-02-11T23:41:52.549Z,57.98
2023-02-11T23:44:20.839Z,59.23
2023-02-11T23:46:49.118Z,59.83
2023-02-11T23:49:17.510Z,60.12
2023-02-11T23:51:45.995Z,62.02
2023-02-11T23:54:15.102Z,63.00
2023-02-11T23:56:43.794Z,63.08
2023-02-11T23:59:12.477Z,62.92
